Time;durP1;ratioP1;P1;durP2;ratioP2;P2;SDS_P1;SDS_P2;PMS_P1;PMS_P2;Temp;Humidity;BMP_temperature;BMP_pressure;BME280_temperature;BME280_humidity;BME280_pressure;Samples;Min_cycle;Max_cycle;Signal;HPM_P1;HPM_P2
2023/10/04 00:00:21;;;;;;;;;;;;;;;22.33;59.54;101599.44;4901196;29;2286;-67
2023/10/04 00:02:50;;;;;;;;;;;;;;;22.33;59.79;101602.34;4900717;29;5997;-67
2023/10/04 00:05:17;;;;;;;;;;;;;;;22.32;59.43;101610.25;4899139;29;2211;-68
2023/10/04 00:07:44;;;;;;;;;;;;;;;22.32;59.42;101606.63;4899426;29;2262;-68
2023/10/04 00:10:10;;;;;;;;;;;;;;;22.32;59.68;101615.28;4901184;29;2219;-67
2023/10/04 00:12:37;;;;;;;;;;;;;;;22.31;59.61;101616.66;4899295;29;2177;-67
2023/10/04 00:15:09;;;;;;;;;;;;;;;22.32;59.44;101623.94;4897723;29;2147;-67
2023/10/04 00:17:41;;;;;;;;;;;;;;;22.31;59.48;101620.31;4900549;29;2219;-67
2023/10/04 00:20:10;;;;;;;;;;;;;;;22.31;59.63;101619.53;4899896;29;2204;-67
2023/10/04 00:22:37;;;;;;;;;;;;;;;22.31;59.48;101625.31;4901121;29;2317;-67
2023/10/04 00:25:04;;;;;;;;;;;;;;;22.30;59.61;101629.59;4900170;29;2168;-67
2023/10/04 00:27:30;;;;;;;;;;;;;;;22.29;59.58;101623.09;4901308;29;2303;-67
2023/10/04 00:29:57;;;;;;;;;;;;;;;22.30;59.58;101623.84;4900066;29;2148;-67
2023/10/04 00:32:23;;;;;;;;;;;;;;;22.29;59.59;101628.13;4900330;29;6485;-67
2023/10/04 00:34:51;;;;;;;;;;;;;;;22.29;59.66;101631.75;4897740;29;2235;-67
2023/10/04 00:37:18;;;;;;;;;;;;;;;22.28;59.51;101627.34;4900434;29;2173;-67
2023/10/04 00:39:44;;;;;;;;;;;;;;;22.28;59.65;101636.00;4899305;29;2195;-67
2023/10/04 00:42:12;;;;;;;;;;;;;;;22.28;59.36;101638.91;4900594;29;2030;-67
2023/10/04 00:44:39;;;;;;;;;;;;;;;22.27;59.54;101640.28;4900027;29;2184;-68
2023/10/04 00:47:05;;;;;;;;;;;;;;;22.28;59.45;101638.16;4901391;29;2128;-67
2023/10/04 00:49:33;;;;;;;;;;;;;;;22.27;59.62;101646.06;4900448;29;2322;-67
2023/10/04 00:51:59;;;;;;;;;;;;;;;22.27;59.31;101645.31;4899115;29;2197;-67
2023/10/04 00:54:26;;;;;;;;;;;;;;;22.27;59.63;101639.56;4879635;29;2160;-67
2023/10/04 00:56:52;;;;;;;;;;;;;;;22.28;59.58;101644.66;4898850;29;2140;-67
2023/10/04 00:59:19;;;;;;;;;;;;;;;22.26;59.64;101641.66;4899918;29;2108;-67
2023/10/04 01:01:45;;;;;;;;;;;;;;;22.26;59.57;101638.06;4901059;29;6201;-68
2023/10/04 01:04:12;;;;;;;;;;;;;;;22.26;59.57;101647.44;4881670;29;2454;-68
2023/10/04 01:06:40;;;;;;;;;;;;;;;22.26;59.29;101646.69;4888169;29;2250;-67
2023/10/04 01:09:06;;;;;;;;;;;;;;;22.26;59.58;101641.66;4900116;29;2155;-67
2023/10/04 01:11:35;;;;;;;;;;;;;;;22.26;59.68;101647.44;4880438;29;2155;-67
2023/10/04 01:16:48;;;;;;;;;;;;;;;22.26;59.30;101646.69;4898179;29;2160;-67
2023/10/04 01:19:17;;;;;;;;;;;;;;;22.25;59.45;101645.22;4899315;29;2108;-67
2023/10/04 01:21:45;;;;;;;;;;;;;;;22.25;59.33;101633.69;4895632;29;2406;-67
2023/10/04 01:24:12;;;;;;;;;;;;;;;22.25;59.40;101645.22;4899244;29;2108;-67
2023/10/04 01:26:38;;;;;;;;;;;;;;;22.24;59.58;101637.94;4898821;29;2200;-67
2023/10/04 01:29:11;;;;;;;;;;;;;;;22.25;59.37;101639.44;4894316;29;2125;-67
2023/10/04 01:31:37;;;;;;;;;;;;;;;22.23;59.29;101637.19;4876733;29;6544;-68
2023/10/04 01:34:06;;;;;;;;;;;;;;;22.23;59.62;101636.47;4898809;29;2136;-67
2023/10/04 01:36:33;;;;;;;;;;;;;;;22.23;59.46;101642.22;4897526;29;2246;-67
2023/10/04 01:39:00;;;;;;;;;;;;;;;22.23;59.43;101630.69;4900066;29;2074;-68
2023/10/04 01:41:27;;;;;;;;;;;;;;;22.22;59.30;101634.94;4898242;29;2235;-67
2023/10/04 01:44:00;;;;;;;;;;;;;;;22.22;59.60;101640.72;4898147;29;2129;-67
2023/10/04 01:46:27;;;;;;;;;;;;;;;22.22;59.54;101623.41;4898882;29;2140;-67
2023/10/04 01:48:56;;;;;;;;;;;;;;;22.22;59.33;101632.06;4897013;29;2372;-67
2023/10/04 01:51:23;;;;;;;;;;;;;;;22.22;59.62;101634.94;4898095;29;2171;-68
2023/10/04 01:53:52;;;;;;;;;;;;;;;22.21;59.74;101633.44;4899196;29;2018;-67
2023/10/04 01:56:19;;;;;;;;;;;;;;;22.21;59.22;101636.31;4899460;29;2341;-67
2023/10/04 01:58:48;;;;;;;;;;;;;;;22.21;59.28;101624.78;4880607;29;2082;-67
2023/10/04 02:01:15;;;;;;;;;;;;;;;22.21;59.62;101634.22;4895743;29;6572;-67
2023/10/04 02:03:42;;;;;;;;;;;;;;;22.20;59.40;101621.16;4897091;29;2128;-67
2023/10/04 02:06:09;;;;;;;;;;;;;;;22.21;59.18;101630.56;4883726;29;2142;-67
2023/10/04 02:08:35;;;;;;;;;;;;;;;22.20;59.13;101631.97;4897941;29;2300;-68
2023/10/04 02:11:03;;;;;;;;;;;;;;;22.20;59.31;101626.94;4880894;29;2119;-67
2023/10/04 02:13:32;;;;;;;;;;;;;;;22.18;59.65;101630.44;4895037;29;2215;-67
2023/10/04 02:16:02;;;;;;;;;;;;;;;22.20;59.42;101631.97;4886602;29;2156;-67
2023/10/04 02:18:29;;;;;;;;;;;;;;;22.18;59.43;101639.09;4899022;29;2259;-67
2023/10/04 02:20:55;;;;;;;;;;;;;;;22.18;59.43;101642.00;4896774;29;2156;-67
2023/10/04 02:23:23;;;;;;;;;;;;;;;22.18;59.41;101642.00;4897650;29;2180;-67
2023/10/04 02:25:49;;;;;;;;;;;;;;;22.18;59.36;101635.47;4900372;29;2184;-67
2023/10/04 02:28:22;;;;;;;;;;;;;;;22.18;59.55;101629.72;4898509;29;2207;-67
2023/10/04 02:30:54;;;;;;;;;;;;;;;22.18;59.12;101635.47;4882278;29;6298;-67
2023/10/04 02:33:21;;;;;;;;;;;;;;;22.17;59.20;101634.72;4898731;29;2140;-67
2023/10/04 02:35:48;;;;;;;;;;;;;;;22.18;59.54;101641.25;4880028;29;2083;-66
2023/10/04 02:38:26;;;;;;;;;;;;;;;22.16;59.61;101627.47;4897864;29;2189;-67
2023/10/04 02:40:53;;;;;;;;;;;;;;;22.16;59.49;101632.47;4880749;29;2161;-67
2023/10/04 02:43:21;;;;;;;;;;;;;;;22.16;59.25;101632.47;4878561;29;2238;-67
2023/10/04 02:45:48;;;;;;;;;;;;;;;22.16;59.55;101632.47;4896791;29;2295;-67
2023/10/04 02:48:15;;;;;;;;;;;;;;;22.15;59.31;101630.97;4880262;29;2106;-67
2023/10/04 02:50:42;;;;;;;;;;;;;;;22.14;59.40;101638.88;4896640;29;2192;-67
2023/10/04 02:53:12;;;;;;;;;;;;;;;22.16;59.37;101644.03;4881509;29;2223;-67
2023/10/04 02:55:39;;;;;;;;;;;;;;;22.15;59.24;101637.50;4894702;29;2172;-67
2023/10/04 02:58:06;;;;;;;;;;;;;;;22.14;59.35;101636.00;4900410;29;2203;-68
2023/10/04 03:00:35;;;;;;;;;;;;;;;22.14;59.18;101630.22;4882346;29;6257;-67
2023/10/04 03:03:02;;;;;;;;;;;;;;;22.14;59.43;101629.50;4883375;29;2158;-67
2023/10/04 03:05:31;;;;;;;;;;;;;;;22.14;59.48;101635.25;4888894;29;2190;-67
2023/10/04 03:08:08;;;;;;;;;;;;;;;22.14;59.38;101638.16;4884486;29;2222;-67
2023/10/04 03:10:40;;;;;;;;;;;;;;;22.13;59.29;101634.53;4888316;29;2221;-67
2023/10/04 03:13:22;;;;;;;;;;;;;;;22.13;59.29;101636.66;4897003;29;2232;-67
2023/10/04 03:15:52;;;;;;;;;;;;;;;22.12;59.18;101627.25;4884981;29;2057;-68
2023/10/04 03:18:20;;;;;;;;;;;;;;;22.12;59.14;101638.78;4897851;29;2109;-67
2023/10/04 03:23:32;;;;;;;;;;;;;;;22.12;59.19;101638.03;4899080;29;2216;-67
2023/10/04 03:26:03;;;;;;;;;;;;;;;22.12;59.20;101633.00;4899131;29;2165;-67
2023/10/04 03:28:33;;;;;;;;;;;;;;;22.12;59.34;101638.78;4884857;29;2290;-67
2023/10/04 03:31:03;;;;;;;;;;;;;;;22.09;59.50;101645.84;4894961;29;6148;-68
2023/10/04 03:33:31;;;;;;;;;;;;;;;22.15;59.33;101659.81;4885892;29;2145;-68
2023/10/04 03:35:59;;;;;;;;;;;;;;;22.04;59.37;101649.19;4899856;29;2097;-68
2023/10/04 03:38:25;;;;;;;;;;;;;;;22.07;59.08;101654.38;4898120;29;2153;-68
2023/10/04 03:40:55;;;;;;;;;;;;;;;22.09;58.81;101663.16;4883461;29;2182;-68
2023/10/04 03:43:22;;;;;;;;;;;;;;;22.09;59.12;101668.19;4900808;29;2221;-68
2023/10/04 03:45:48;;;;;;;;;;;;;;;22.08;58.95;101658.78;4897513;29;1722;-68
2023/10/04 03:48:19;;;;;;;;;;;;;;;22.09;59.32;101654.50;4882660;29;2222;-68
2023/10/04 03:50:51;;;;;;;;;;;;;;;22.08;59.02;101670.31;4882593;29;2155;-69
2023/10/04 03:53:21;;;;;;;;;;;;;;;22.09;58.89;101663.16;4880105;29;2348;-68
2023/10/04 03:55:50;;;;;;;;;;;;;;;22.09;58.98;101660.25;4884307;29;1938;-68
2023/10/04 03:58:19;;;;;;;;;;;;;;;22.09;59.03;101668.19;4884249;29;1845;-68
2023/10/04 04:00:46;;;;;;;;;;;;;;;22.09;59.12;101659.53;4882762;29;6202;-68
2023/10/04 04:03:12;;;;;;;;;;;;;;;22.09;58.92;101668.91;4899287;29;2181;-68
2023/10/04 04:05:42;;;;;;;;;;;;;;;22.09;58.85;101673.94;4882792;29;1676;-68
2023/10/04 04:08:09;;;;;;;;;;;;;;;22.09;58.75;101668.91;4900028;29;2071;-68
2023/10/04 04:10:36;;;;;;;;;;;;;;;22.08;58.74;101667.44;4901020;29;2098;-68
2023/10/04 04:13:03;;;;;;;;;;;;;;;22.07;58.92;101676.72;4900082;29;2174;-68
2023/10/04 04:15:33;;;;;;;;;;;;;;;22.07;58.65;101671.69;4898927;29;2075;-68
2023/10/04 04:18:06;;;;;;;;;;;;;;;22.07;58.95;101677.47;4885487;29;1682;-68
2023/10/04 04:20:35;;;;;;;;;;;;;;;22.06;58.71;101681.75;4900665;29;1847;-68
2023/10/04 04:23:06;;;;;;;;;;;;;;;22.07;59.09;101688.25;4884089;29;1861;-68
2023/10/04 04:25:33;;;;;;;;;;;;;;;22.06;58.93;101681.75;4897301;29;2471;-68
2023/10/04 04:28:02;;;;;;;;;;;;;;;22.05;59.13;101677.34;4900034;29;2181;-68
2023/10/04 04:30:31;;;;;;;;;;;;;;;22.05;58.88;101674.47;4887483;29;6593;-68
2023/10/04 04:33:02;;;;;;;;;;;;;;;22.06;58.86;101681.75;4883197;29;2115;-68
2023/10/04 04:35:47;;;;;;;;;;;;;;;22.01;59.21;101680.03;4882100;29;2348;-71
2023/10/04 04:38:19;;;;;;;;;;;;;;;21.39;56.09;101675.22;4882615;29;2256;-69
2023/10/04 04:40:48;;;;;;;;;;;;;;;21.27;56.37;101669.53;4898960;29;2177;-68
2023/10/04 04:43:22;;;;;;;;;;;;;;;21.48;56.72;101668.56;4888724;29;2346;-68
2023/10/04 04:45:54;;;;;;;;;;;;;;;21.71;56.69;101665.47;4897652;29;2007;-70
2023/10/04 04:48:24;;;;;;;;;;;;;;;21.85;57.03;101667.63;4898654;29;1645;-72
2023/10/04 04:50:55;;;;;;;;;;;;;;;21.95;56.45;101673.94;4895926;29;2197;-68
2023/10/04 04:53:22;;;;;;;;;;;;;;;21.96;56.45;101661.00;4900224;29;1573;-70
2023/10/04 04:55:49;;;;;;;;;;;;;;;22.00;57.07;101672.78;4898703;29;1919;-69
2023/10/04 04:58:18;;;;;;;;;;;;;;;21.99;57.10;101668.41;4881386;29;2318;-69
2023/10/04 05:00:47;;;;;;;;;;;;;;;21.94;57.09;101675.31;4900580;29;6225;-69
2023/10/04 05:03:13;;;;;;;;;;;;;;;21.94;57.41;101686.84;4899920;29;1836;-69
2023/10/04 05:05:40;;;;;;;;;;;;;;;21.94;57.65;101686.84;4900662;29;1653;-69
2023/10/04 05:08:07;;;;;;;;;;;;;;;21.94;57.38;101675.31;4898619;29;1930;-69
2023/10/04 05:10:38;;;;;;;;;;;;;;;21.93;57.53;101691.13;4899826;29;1569;-69
2023/10/04 05:13:07;;;;;;;;;;;;;;;21.95;57.56;101679.72;4898024;29;1637;-69
2023/10/04 05:15:35;;;;;;;;;;;;;;;21.93;58.04;101686.13;4882829;29;1976;-69
2023/10/04 05:18:04;;;;;;;;;;;;;;;21.93;57.63;101683.22;4898960;29;1573;-69
2023/10/04 05:20:32;;;;;;;;;;;;;;;21.92;58.06;101684.63;4899275;29;2117;-69
2023/10/04 05:22:59;;;;;;;;;;;;;;;21.94;58.08;101689.75;4881586;29;1834;-69
2023/10/04 05:25:27;;;;;;;;;;;;;;;21.95;58.04;101688.38;4899366;29;1589;-69
2023/10/04 05:28:02;;;;;;;;;;;;;;;21.95;58.06;101688.38;4881943;29;1552;-69
2023/10/04 05:30:28;;;;;;;;;;;;;;;21.94;57.78;101693.41;4899474;29;6678;-69
2023/10/04 05:32:55;;;;;;;;;;;;;;;21.93;58.08;101688.25;4897954;29;1653;-69
2023/10/04 05:35:21;;;;;;;;;;;;;;;21.93;57.87;101691.13;4899467;29;2147;-69
2023/10/04 05:37:48;;;;;;;;;;;;;;;21.93;58.04;101699.78;4899589;29;1828;-69
2023/10/04 05:40:23;;;;;;;;;;;;;;;21.94;58.16;101698.41;4899071;29;1645;-69
2023/10/04 05:42:49;;;;;;;;;;;;;;;21.93;58.14;101703.41;4899565;29;1730;-69
2023/10/04 05:45:16;;;;;;;;;;;;;;;21.93;58.31;101708.44;4899290;29;1617;-68
2023/10/04 05:47:43;;;;;;;;;;;;;;;21.92;58.33;101704.06;4898414;29;1757;-70
2023/10/04 05:50:10;;;;;;;;;;;;;;;21.91;58.33;101706.19;4898956;29;1569;-70
2023/10/04 05:52:39;;;;;;;;;;;;;;;21.92;58.29;101713.47;4899172;29;1733;-70
2023/10/04 05:55:08;;;;;;;;;;;;;;;21.92;58.28;101709.81;4899381;29;1642;-70
2023/10/04 05:57:35;;;;;;;;;;;;;;;21.91;58.25;101711.97;4898807;29;1983;-70
2023/10/04 06:00:22;;;;;;;;;;;;;;;21.92;58.33;101724.22;4882565;29;1811;-70
2023/10/04 06:02:49;;;;;;;;;;;;;;;21.91;58.39;101719.88;4897809;29;6540;-70
2023/10/04 06:05:16;;;;;;;;;;;;;;;21.91;58.31;101726.38;4898628;29;1780;-70
2023/10/04 06:07:43;;;;;;;;;;;;;;;21.92;58.27;101727.13;4881687;29;1881;-70
2023/10/04 06:10:11;;;;;;;;;;;;;;;21.91;58.13;101734.28;4899807;29;1853;-70
2023/10/04 06:12:38;;;;;;;;;;;;;;;21.90;58.38;101721.28;4898255;29;1737;-70
2023/10/04 06:15:05;;;;;;;;;;;;;;;21.90;58.25;101739.31;4898710;29;1849;-70
2023/10/04 06:17:31;;;;;;;;;;;;;;;21.91;58.52;101740.06;4898142;29;1955;-70
2023/10/04 06:19:58;;;;;;;;;;;;;;;21.91;58.24;101752.34;4899423;29;1797;-70
2023/10/04 06:22:24;;;;;;;;;;;;;;;21.90;58.48;101750.84;4899618;29;1800;-68
2023/10/04 06:24:51;;;;;;;;;;;;;;;21.90;58.47;101762.38;4898631;29;1825;-68
2023/10/04 06:27:17;;;;;;;;;;;;;;;21.91;58.32;101760.25;4899332;29;1606;-69
2023/10/04 06:29:44;;;;;;;;;;;;;;;21.91;58.52;101768.88;4899613;29;1796;-70
2023/10/04 06:32:12;;;;;;;;;;;;;;;21.90;58.42;101767.41;4901935;29;6273;-69
2023/10/04 06:34:38;;;;;;;;;;;;;;;21.91;58.31;101774.66;4902672;29;1913;-69
2023/10/04 06:37:04;;;;;;;;;;;;;;;21.91;58.60;101771.78;4901381;29;1981;-69
2023/10/04 06:39:31;;;;;;;;;;;;;;;21.90;58.60;101784.72;4903276;29;1742;-69
2023/10/04 06:41:58;;;;;;;;;;;;;;;21.90;58.23;101782.56;4902947;29;1673;-69
2023/10/04 06:44:27;;;;;;;;;;;;;;;21.90;58.29;101790.47;4901941;29;1863;-69
2023/10/04 06:46:53;;;;;;;;;;;;;;;21.90;58.56;101790.47;4902675;29;1589;-69
2023/10/04 06:49:19;;;;;;;;;;;;;;;21.90;58.59;101802.75;4903535;29;1864;-70
2023/10/04 06:51:46;;;;;;;;;;;;;;;21.90;58.28;101796.25;4902335;29;1793;-69
2023/10/04 06:54:14;;;;;;;;;;;;;;;21.90;58.50;101802.00;4902172;29;1594;-69
2023/10/04 06:56:41;;;;;;;;;;;;;;;21.91;58.42;101803.50;4884421;29;1911;-69
2023/10/04 06:59:07;;;;;;;;;;;;;;;21.91;58.52;101809.25;4901553;29;1820;-69
2023/10/04 07:01:35;;;;;;;;;;;;;;;21.91;58.51;101815.03;4901507;29;6118;-69
2023/10/04 07:04:02;;;;;;;;;;;;;;;21.90;58.33;101813.53;4901569;29;1606;-69
2023/10/04 07:06:32;;;;;;;;;;;;;;;21.90;58.61;101820.06;4884831;29;1834;-69
2023/10/04 07:08:59;;;;;;;;;;;;;;;21.90;58.65;101813.53;4900918;29;1847;-69
2023/10/04 07:11:27;;;;;;;;;;;;;;;21.91;58.39;101823.69;4903496;29;1609;-69
2023/10/04 07:13:54;;;;;;;;;;;;;;;21.88;58.37;101807.66;4901220;29;1614;-68
2023/10/04 07:16:20;;;;;;;;;;;;;;;21.90;58.34;101817.16;4902409;29;1923;-68
2023/10/04 07:18:47;;;;;;;;;;;;;;;21.90;58.29;101819.31;4902200;29;1673;-69
2023/10/04 07:21:15;;;;;;;;;;;;;;;21.90;58.57;101825.81;4884276;29;1686;-69
2023/10/04 07:23:41;;;;;;;;;;;;;;;21.90;58.31;101825.09;4901382;29;1860;-69
2023/10/04 07:26:09;;;;;;;;;;;;;;;21.90;58.44;101827.97;4900900;29;1627;-69
2023/10/04 07:28:37;;;;;;;;;;;;;;;21.89;58.30;101824.31;4901052;29;1769;-69
2023/10/04 07:31:03;;;;;;;;;;;;;;;21.88;58.64;101828.59;4873589;29;6401;-69
2023/10/04 07:33:30;;;;;;;;;;;;;;;21.88;58.54;101828.59;4902960;29;1704;-69
2023/10/04 07:35:56;;;;;;;;;;;;;;;21.89;58.22;101835.09;4900434;29;1970;-69
2023/10/04 07:38:22;;;;;;;;;;;;;;;21.89;58.56;101830.06;4901844;29;1659;-69
2023/10/04 07:40:49;;;;;;;;;;;;;;;21.89;58.34;101827.19;4889956;29;1744;-69
2023/10/04 07:43:15;;;;;;;;;;;;;;;21.89;58.62;101835.09;4884159;29;1632;-69
2023/10/04 07:45:42;;;;;;;;;;;;;;;21.90;58.33;101836.63;4902432;29;1571;-69
2023/10/04 07:48:12;;;;;;;;;;;;;;;21.90;58.61;101833.72;4899174;29;1597;-69
2023/10/04 07:50:39;;;;;;;;;;;;;;;21.90;58.55;101833.72;4901598;29;1648;-69
2023/10/04 07:53:06;;;;;;;;;;;;;;;21.90;58.52;101836.63;4900326;29;1708;-69
2023/10/04 07:55:33;;;;;;;;;;;;;;;21.90;58.61;101834.47;4901400;29;1721;-69
2023/10/04 07:58:06;;;;;;;;;;;;;;;21.90;58.53;101836.63;4901542;29;1990;-69
2023/10/04 08:00:36;;;;;;;;;;;;;;;21.91;58.55;101838.09;4899644;29;6148;-69
2023/10/04 08:03:04;;;;;;;;;;;;;;;21.90;58.32;101842.38;4900112;29;1816;-69
2023/10/04 08:05:34;;;;;;;;;;;;;;;21.91;58.29;101838.09;4901358;29;1893;-69
2023/10/04 08:08:01;;;;;;;;;;;;;;;21.91;58.24;101850.38;4901592;29;1820;-69
2023/10/04 08:10:31;;;;;;;;;;;;;;;21.90;58.42;101843.13;4901766;29;1664;-69
2023/10/04 08:13:00;;;;;;;;;;;;;;;21.91;58.58;101838.09;4899954;29;1821;-69
2023/10/04 08:15:27;;;;;;;;;;;;;;;21.91;58.53;101843.88;4901416;29;1625;-69
2023/10/04 08:17:54;;;;;;;;;;;;;;;21.90;58.15;101843.13;4882655;29;1915;-69
2023/10/04 08:20:21;;;;;;;;;;;;;;;21.91;58.23;101853.25;4899746;29;1573;-69
2023/10/04 08:22:47;;;;;;;;;;;;;;;21.91;58.16;101855.41;4900230;29;1589;-69
2023/10/04 08:25:17;;;;;;;;;;;;;;;21.92;58.17;101854.00;4884354;29;1705;-69
2023/10/04 08:27:44;;;;;;;;;;;;;;;21.92;58.41;101868.41;4901150;29;1630;-69
2023/10/04 08:30:12;;;;;;;;;;;;;;;21.92;58.38;101862.66;4898926;29;6281;-68
2023/10/04 08:32:42;;;;;;;;;;;;;;;21.91;58.42;101872.69;4900643;29;1672;-69
2023/10/04 08:35:09;;;;;;;;;;;;;;;21.91;58.31;101879.22;4882780;29;1779;-69
2023/10/04 08:37:35;;;;;;;;;;;;;;;21.92;58.11;101865.53;4900558;29;1978;-69
2023/10/04 08:40:01;;;;;;;;;;;;;;;21.91;58.33;101867.69;4900287;29;1630;-69
2023/10/04 08:42:28;;;;;;;;;;;;;;;21.91;58.56;101866.94;4899458;29;1585;-68
2023/10/04 08:44:54;;;;;;;;;;;;;;;21.92;58.13;101874.19;4899910;29;1623;-69
2023/10/04 08:47:22;;;;;;;;;;;;;;;21.92;58.23;101877.84;4900505;29;1653;-69
2023/10/04 08:49:52;;;;;;;;;;;;;;;21.93;58.41;101869.94;4900619;29;1756;-69
2023/10/04 08:52:24;;;;;;;;;;;;;;;21.93;58.30;101876.44;4900546;29;1607;-69
2023/10/04 08:54:52;;;;;;;;;;;;;;;21.94;58.11;101880.06;4900004;29;1749;-69
2023/10/04 08:57:22;;;;;;;;;;;;;;;21.94;58.35;101882.97;4899659;29;1915;-69
2023/10/04 08:59:49;;;;;;;;;;;;;;;21.94;58.31;101883.72;4900317;29;1629;-69
2023/10/04 09:02:15;;;;;;;;;;;;;;;21.96;58.08;101891.72;4899338;29;6082;-69
2023/10/04 09:04:42;;;;;;;;;;;;;;;21.95;58.28;101884.47;4901218;29;1565;-69
2023/10/04 09:07:09;;;;;;;;;;;;;;;21.95;58.35;101884.47;4899082;29;1706;-69
2023/10/04 09:09:35;;;;;;;;;;;;;;;21.97;57.97;101899.00;4898665;29;1614;-69
2023/10/04 09:12:02;;;;;;;;;;;;;;;21.94;58.02;101888.72;4899581;29;1824;-69
2023/10/04 09:14:29;;;;;;;;;;;;;;;21.95;58.34;101901.78;4900110;29;1581;-69
2023/10/04 09:17:05;;;;;;;;;;;;;;;21.94;58.21;101903.16;4900234;29;2352;-68
2023/10/04 09:19:32;;;;;;;;;;;;;;;21.93;58.07;101905.28;4900636;29;1729;-69
2023/10/04 09:22:07;;;;;;;;;;;;;;;21.95;58.25;101916.19;4898895;29;1876;-69
2023/10/04 09:24:53;;;;;;;;;;;;;;;21.94;58.08;101906.81;4900494;29;1538;-69
2023/10/04 09:27:21;;;;;;;;;;;;;;;21.96;58.03;101903.25;4898453;29;1797;-69
2023/10/04 09:29:53;;;;;;;;;;;;;;;21.96;58.37;101903.25;4899476;29;1746;-69
2023/10/04 09:32:33;;;;;;;;;;;;;;;21.96;58.11;101909.03;4899380;29;6117;-69
2023/10/04 09:35:00;;;;;;;;;;;;;;;21.96;58.21;101897.50;4899417;29;1673;-68
2023/10/04 09:37:26;;;;;;;;;;;;;;;21.97;57.95;101893.25;4899966;29;1974;-69
2023/10/04 09:40:05;;;;;;;;;;;;;;;21.96;58.36;101897.50;4898838;29;1879;-69
2023/10/04 09:42:43;;;;;;;;;;;;;;;21.97;58.17;101887.47;4899539;29;1820;-69
2023/10/04 09:45:10;;;;;;;;;;;;;;;21.97;58.01;101899.00;4898617;29;1916;-69
2023/10/04 09:47:37;;;;;;;;;;;;;;;21.98;58.32;101893.97;4899882;29;1887;-69
2023/10/04 09:50:06;;;;;;;;;;;;;;;21.97;58.00;101893.25;4898665;29;1730;-69
2023/10/04 09:52:32;;;;;;;;;;;;;;;21.99;58.05;101896.25;4889241;29;1881;-68
2023/10/04 09:54:58;;;;;;;;;;;;;;;21.97;58.01;101899.00;4898711;29;1642;-69
2023/10/04 09:57:27;;;;;;;;;;;;;;;21.98;58.16;101900.50;4899441;29;1970;-69
2023/10/04 09:59:53;;;;;;;;;;;;;;;22.00;58.24;101905.63;4880841;29;1854;-69
2023/10/04 10:02:21;;;;;;;;;;;;;;;21.98;58.20;101912.03;4880859;29;6188;-69
2023/10/04 10:04:48;;;;;;;;;;;;;;;21.99;58.03;101916.44;4880418;29;1622;-69
2023/10/04 10:07:22;;;;;;;;;;;;;;;21.99;58.16;101930.84;4898170;29;1649;-69
2023/10/04 10:10:02;;;;;;;;;;;;;;;21.99;58.27;101930.84;4896743;29;1621;-69
2023/10/04 10:12:40;;;;;;;;;;;;;;;21.99;58.28;101930.09;4883276;29;1805;-69
2023/10/04 10:15:07;;;;;;;;;;;;;;;22.00;58.17;101937.38;4897696;29;1741;-69
2023/10/04 10:17:35;;;;;;;;;;;;;;;22.02;58.00;101928.81;4897169;29;1972;-69
2023/10/04 10:20:01;;;;;;;;;;;;;;;21.99;58.37;101933.75;4899454;29;1813;-69
2023/10/04 10:22:30;;;;;;;;;;;;;;;22.00;58.16;101923.69;4888777;29;1694;-69
2023/10/04 10:24:56;;;;;;;;;;;;;;;22.00;58.11;101935.22;4899245;29;1582;-69
2023/10/04 10:27:23;;;;;;;;;;;;;;;22.00;58.21;101934.47;4898998;29;1608;-69
2023/10/04 10:29:50;;;;;;;;;;;;;;;22.00;58.06;101941.00;4898398;29;1602;-69
2023/10/04 10:32:18;;;;;;;;;;;;;;;21.99;58.33;101936.63;4896975;29;6316;-69
2023/10/04 10:34:45;;;;;;;;;;;;;;;22.02;58.30;101940.38;4880122;29;1970;-69
2023/10/04 10:37:15;;;;;;;;;;;;;;;22.02;58.03;101940.38;4880095;29;1976;-69
2023/10/04 10:39:42;;;;;;;;;;;;;;;22.02;58.25;101929.56;4898262;29;1800;-69
2023/10/04 10:42:11;;;;;;;;;;;;;;;22.03;58.21;101936.09;4899185;29;1801;-69
2023/10/04 10:44:39;;;;;;;;;;;;;;;22.02;58.14;101929.56;4897603;29;1793;-69
2023/10/04 10:47:07;;;;;;;;;;;;;;;22.03;58.29;101924.53;4898081;29;1654;-69
2023/10/04 10:49:36;;;;;;;;;;;;;;;22.03;58.16;101936.81;4898172;29;1598;-64
2023/10/04 10:52:03;;;;;;;;;;;;;;;22.04;58.22;101928.94;4898560;29;1669;-69
2023/10/04 10:54:29;;;;;;;;;;;;;;;22.03;58.33;101936.81;4899111;29;1561;-69
2023/10/04 10:56:55;;;;;;;;;;;;;;;22.05;58.42;101934.06;4899561;29;1911;-69
2023/10/04 10:59:22;;;;;;;;;;;;;;;22.04;58.07;101931.84;4880497;29;1668;-69
2023/10/04 11:01:48;;;;;;;;;;;;;;;22.03;58.16;101936.81;4898323;29;6749;-69
2023/10/04 11:04:16;;;;;;;;;;;;;;;22.05;58.11;101939.84;4898452;29;1593;-69
2023/10/04 11:06:43;;;;;;;;;;;;;;;22.05;58.41;101944.84;4898452;29;1697;-69
2023/10/04 11:09:09;;;;;;;;;;;;;;;22.05;58.21;101945.59;4896679;29;1673;-69
2023/10/04 11:11:36;;;;;;;;;;;;;;;22.05;58.20;101941.97;4899254;29;1571;-69
2023/10/04 11:14:05;;;;;;;;;;;;;;;22.05;58.03;101945.59;4898770;29;1710;-69
2023/10/04 11:16:33;;;;;;;;;;;;;;;22.04;58.18;101941.22;4881179;29;1698;-70
2023/10/04 11:19:02;;;;;;;;;;;;;;;22.05;58.07;101942.72;4900708;29;1915;-69
2023/10/04 11:21:29;;;;;;;;;;;;;;;22.06;58.04;101947.13;4902979;29;1579;-69
2023/10/04 11:23:55;;;;;;;;;;;;;;;22.04;58.24;101944.13;4891272;29;1881;-69
2023/10/04 11:26:22;;;;;;;;;;;;;;;22.07;58.06;101947.84;4900947;29;1717;-69
2023/10/04 11:28:49;;;;;;;;;;;;;;;22.07;58.36;101939.22;4902558;29;1577;-69
2023/10/04 11:31:16;;;;;;;;;;;;;;;22.09;58.02;101945.84;4899502;29;6271;-69
2023/10/04 11:33:55;;;;;;;;;;;;;;;22.09;58.03;101942.94;4902195;29;1884;-69
2023/10/04 11:36:22;;;;;;;;;;;;;;;22.10;58.08;101943.69;4900640;29;1594;-69
2023/10/04 11:38:52;;;;;;;;;;;;;;;22.10;58.06;101953.09;4900921;29;1911;-69
2023/10/04 11:41:19;;;;;;;;;;;;;;;22.11;58.44;101940.19;4901890;29;1658;-69
2023/10/04 11:43:53;;;;;;;;;;;;;;;22.11;58.37;101940.19;4900779;29;1680;-69
2023/10/04 11:46:22;;;;;;;;;;;;;;;22.11;58.36;101937.31;4901955;29;1630;-69
2023/10/04 11:48:49;;;;;;;;;;;;;;;22.12;58.08;101938.78;4902213;29;1618;-69
2023/10/04 11:51:25;;;;;;;;;;;;;;;22.13;58.09;101928.03;4901460;29;1669;-69
2023/10/04 11:53:53;;;;;;;;;;;;;;;22.14;58.26;101924.47;4901246;29;1622;-69
2023/10/04 11:56:19;;;;;;;;;;;;;;;22.14;58.17;101930.25;4901296;29;1636;-69
2023/10/04 11:58:47;;;;;;;;;;;;;;;22.14;58.41;101929.50;4901763;29;1914;-69
2023/10/04 12:01:17;;;;;;;;;;;;;;;22.12;58.17;101933.00;4899232;29;6297;-69
2023/10/04 12:03:43;;;;;;;;;;;;;;;22.11;58.39;101931.53;4901796;29;1744;-69
2023/10/04 12:06:10;;;;;;;;;;;;;;;22.13;58.11;101928.75;4898961;29;1678;-69
2023/10/04 12:08:36;;;;;;;;;;;;;;;22.13;58.05;101942.44;4899974;29;1820;-69
2023/10/04 12:11:13;;;;;;;;;;;;;;;22.13;57.99;101945.31;4901070;29;1574;-69
2023/10/04 12:13:40;;;;;;;;;;;;;;;22.14;58.13;101941.78;4900929;29;1641;-69
2023/10/04 12:16:06;;;;;;;;;;;;;;;22.14;58.15;101941.78;4900545;29;1578;-69
2023/10/04 12:18:34;;;;;;;;;;;;;;;22.16;58.02;101933.25;4883665;29;1915;-69
2023/10/04 12:21:01;;;;;;;;;;;;;;;22.16;58.34;101933.25;4900161;29;1673;-69
2023/10/04 12:23:27;;;;;;;;;;;;;;;22.16;58.24;101932.50;4902373;29;1871;-70
2023/10/04 12:25:53;;;;;;;;;;;;;;;22.15;58.23;101931.00;4900371;29;1812;-69
2023/10/04 12:28:20;;;;;;;;;;;;;;;22.15;58.20;101928.88;4900238;29;1645;-69
2023/10/04 12:30:48;;;;;;;;;;;;;;;22.15;58.19;101931.00;4899074;29;7316;-69
2023/10/04 12:33:15;;;;;;;;;;;;;;;22.15;58.29;101928.88;4900435;29;1650;-69
2023/10/04 12:35:42;;;;;;;;;;;;;;;22.15;58.19;101931.75;4900719;29;1752;-69
2023/10/04 12:38:08;;;;;;;;;;;;;;;22.15;58.19;101945.41;4899956;29;1911;-69
2023/10/04 12:40:35;;;;;;;;;;;;;;;22.17;58.31;101929.00;4898938;29;1670;-69
2023/10/04 12:43:02;;;;;;;;;;;;;;;22.16;58.27;101927.47;4898973;29;1559;-70
2023/10/04 12:45:29;;;;;;;;;;;;;;;22.15;58.41;101931.75;4901247;29;1606;-69
2023/10/04 12:47:56;;;;;;;;;;;;;;;22.14;58.17;101918.72;4901456;29;1645;-69
2023/10/04 12:50:24;;;;;;;;;;;;;;;22.15;58.33;101931.75;4900416;29;1812;-69
2023/10/04 12:52:51;;;;;;;;;;;;;;;22.15;58.20;101928.88;4899383;29;1636;-70
2023/10/04 12:55:17;;;;;;;;;;;;;;;22.15;58.21;101923.09;4900228;29;1611;-69
2023/10/04 12:57:44;;;;;;;;;;;;;;;22.17;58.34;101923.22;4900055;29;1954;-69